Terminal Aerodrome Forecast
Issued by NWS

Home | Current Version | Previous Version | Text Only | Print | Product List | Glossary On
Versions: 1 2 3 4 5 6 7 8 9 10 11 12 13
000
FTUS45 KVEF 242300
TAFVGT
TAF
KVGT 242330Z 2500/2524 12006KT P6SM BKN250
     FM250400 21010KT P6SM FEW100
     FM250900 33020G30KT P6SM FEW060 BKN100
     FM251500 33023G35KT P6SM FEW100=

USA.gov is the U.S. government's official web portal to all federal, state and local government web resources and services.